sensor_id;sensor_type;location;lat;lon;timestamp;pressure;altitude;pressure_sealevel;temperature;humidity
53246;BME280;39569;51.090;-1.786;2023-07-24T00:01:06;99744.28;;;27.14;44.06
53246;BME280;39569;51.090;-1.786;2023-07-24T00:03:33;99732.50;;;26.46;44.87
53246;BME280;39569;51.090;-1.786;2023-07-24T00:06:01;99731.91;;;27.03;44.12
53246;BME280;39569;51.090;-1.786;2023-07-24T00:08:28;99728.00;;;26.82;44.73
53246;BME280;39569;51.090;-1.786;2023-07-24T00:10:56;99717.63;;;26.79;44.31
53246;BME280;39569;51.090;-1.786;2023-07-24T00:13:23;99728.94;;;26.46;45.72
53246;BME280;39569;51.090;-1.786;2023-07-24T00:15:50;99725.75;;;26.84;44.42
53246;BME280;39569;51.090;-1.786;2023-07-24T00:18:17;99718.41;;;27.07;43.98
53246;BME280;39569;51.090;-1.786;2023-07-24T00:20:44;99730.16;;;26.53;45.07
53246;BME280;39569;51.090;-1.786;2023-07-24T00:23:11;99719.03;;;26.90;44.33
53246;BME280;39569;51.090;-1.786;2023-07-24T00:25:37;99717.53;;;26.71;44.68
53246;BME280;39569;51.090;-1.786;2023-07-24T00:28:06;99709.28;;;27.11;43.85
53246;BME280;39569;51.090;-1.786;2023-07-24T00:30:32;99714.97;;;27.01;44.05
53246;BME280;39569;51.090;-1.786;2023-07-24T00:32:59;99711.94;;;26.89;44.73
53246;BME280;39569;51.090;-1.786;2023-07-24T00:35:26;99711.50;;;26.96;44.63
53246;BME280;39569;51.090;-1.786;2023-07-24T00:37:52;99712.34;;;26.96;44.45
53246;BME280;39569;51.090;-1.786;2023-07-24T00:40:19;99711.44;;;26.87;44.24
53246;BME280;39569;51.090;-1.786;2023-07-24T00:42:47;99718.63;;;26.97;44.63
53246;BME280;39569;51.090;-1.786;2023-07-24T00:45:16;99710.59;;;26.60;45.13
53246;BME280;39569;51.090;-1.786;2023-07-24T00:47:44;99703.09;;;26.92;44.41
53246;BME280;39569;51.090;-1.786;2023-07-24T00:50:11;99708.44;;;27.25;43.64
53246;BME280;39569;51.090;-1.786;2023-07-24T00:52:39;99706.66;;;27.06;44.15
53246;BME280;39569;51.090;-1.786;2023-07-24T00:55:07;99706.44;;;26.49;45.89
53246;BME280;39569;51.090;-1.786;2023-07-24T00:57:34;99700.59;;;26.82;44.78
53246;BME280;39569;51.090;-1.786;2023-07-24T01:00:01;99699.34;;;26.61;45.42
53246;BME280;39569;51.090;-1.786;2023-07-24T01:02:31;99696.72;;;26.70;44.94
53246;BME280;39569;51.090;-1.786;2023-07-24T01:04:57;99698.56;;;26.88;44.55
53246;BME280;39569;51.090;-1.786;2023-07-24T01:07:24;99693.22;;;27.05;44.20
53246;BME280;39569;51.090;-1.786;2023-07-24T01:09:51;99691.34;;;27.28;43.65
53246;BME280;39569;51.090;-1.786;2023-07-24T01:12:22;99691.25;;;27.33;43.82
53246;BME280;39569;51.090;-1.786;2023-07-24T01:14:56;99691.94;;;27.02;44.59
53246;BME280;39569;51.090;-1.786;2023-07-24T01:17:26;99689.81;;;27.35;44.14
53246;BME280;39569;51.090;-1.786;2023-07-24T01:19:58;99688.41;;;27.38;43.85
53246;BME280;39569;51.090;-1.786;2023-07-24T01:22:33;99689.41;;;27.28;43.80
53246;BME280;39569;51.090;-1.786;2023-07-24T01:25:10;99689.41;;;27.28;44.13
53246;BME280;39569;51.090;-1.786;2023-07-24T01:27:42;99694.22;;;27.23;44.48
53246;BME280;39569;51.090;-1.786;2023-07-24T01:30:09;99684.56;;;27.25;43.68
53246;BME280;39569;51.090;-1.786;2023-07-24T01:32:36;99689.03;;;27.21;44.26
53246;BME280;39569;51.090;-1.786;2023-07-24T01:35:04;99688.22;;;27.20;43.70
53246;BME280;39569;51.090;-1.786;2023-07-24T01:37:31;99681.28;;;27.01;44.24
53246;BME280;39569;51.090;-1.786;2023-07-24T01:40:00;99680.72;;;27.12;44.49
53246;BME280;39569;51.090;-1.786;2023-07-24T01:42:28;99681.03;;;27.11;44.07
53246;BME280;39569;51.090;-1.786;2023-07-24T01:44:57;99672.69;;;27.16;44.41
53246;BME280;39569;51.090;-1.786;2023-07-24T01:47:24;99666.50;;;27.10;44.18
53246;BME280;39569;51.090;-1.786;2023-07-24T01:49:51;99667.06;;;26.85;44.50
53246;BME280;39569;51.090;-1.786;2023-07-24T01:52:17;99670.13;;;26.84;44.37
53246;BME280;39569;51.090;-1.786;2023-07-24T01:54:44;99668.69;;;26.86;44.68
53246;BME280;39569;51.090;-1.786;2023-07-24T01:57:11;99669.50;;;26.73;44.78
53246;BME280;39569;51.090;-1.786;2023-07-24T01:59:38;99661.91;;;26.70;45.22
53246;BME280;39569;51.090;-1.786;2023-07-24T02:02:06;99672.13;;;26.92;44.29
53246;BME280;39569;51.090;-1.786;2023-07-24T02:04:33;99654.88;;;26.64;44.88
53246;BME280;39569;51.090;-1.786;2023-07-24T02:06:59;99654.38;;;26.89;44.74
53246;BME280;39569;51.090;-1.786;2023-07-24T02:09:26;99665.03;;;26.91;44.56
53246;BME280;39569;51.090;-1.786;2023-07-24T02:11:53;99654.97;;;26.86;45.04
53246;BME280;39569;51.090;-1.786;2023-07-24T02:14:20;99658.72;;;27.04;44.74
53246;BME280;39569;51.090;-1.786;2023-07-24T02:16:46;99652.34;;;26.95;44.39
53246;BME280;39569;51.090;-1.786;2023-07-24T02:19:14;99651.97;;;26.47;45.14
53246;BME280;39569;51.090;-1.786;2023-07-24T02:21:41;99652.66;;;26.39;45.31
53246;BME280;39569;51.090;-1.786;2023-07-24T02:24:07;99641.44;;;25.95;47.02
53246;BME280;39569;51.090;-1.786;2023-07-24T02:26:34;99639.88;;;26.21;45.83
53246;BME280;39569;51.090;-1.786;2023-07-24T02:29:00;99641.53;;;26.49;45.64
53246;BME280;39569;51.090;-1.786;2023-07-24T02:31:27;99639.25;;;26.51;45.67
53246;BME280;39569;51.090;-1.786;2023-07-24T02:33:54;99641.81;;;26.75;45.20
53246;BME280;39569;51.090;-1.786;2023-07-24T02:36:22;99641.28;;;26.59;45.17
53246;BME280;39569;51.090;-1.786;2023-07-24T02:38:49;99634.50;;;26.43;45.43
53246;BME280;39569;51.090;-1.786;2023-07-24T02:41:15;99643.72;;;26.88;44.61
53246;BME280;39569;51.090;-1.786;2023-07-24T02:43:42;99635.50;;;26.88;45.20
53246;BME280;39569;51.090;-1.786;2023-07-24T02:46:09;99642.00;;;26.78;45.02
53246;BME280;39569;51.090;-1.786;2023-07-24T02:48:36;99640.19;;;26.74;45.18
53246;BME280;39569;51.090;-1.786;2023-07-24T02:51:02;99638.56;;;26.59;45.07
53246;BME280;39569;51.090;-1.786;2023-07-24T02:53:30;99642.41;;;26.72;44.87
53246;BME280;39569;51.090;-1.786;2023-07-24T02:55:57;99639.69;;;26.72;45.40
53246;BME280;39569;51.090;-1.786;2023-07-24T02:58:24;99641.38;;;26.81;45.04
53246;BME280;39569;51.090;-1.786;2023-07-24T03:00:50;99632.56;;;26.57;45.44
53246;BME280;39569;51.090;-1.786;2023-07-24T03:03:17;99636.00;;;26.63;45.53
53246;BME280;39569;51.090;-1.786;2023-07-24T03:05:44;99638.06;;;26.71;45.37
53246;BME280;39569;51.090;-1.786;2023-07-24T03:08:11;99638.44;;;26.64;45.52
53246;BME280;39569;51.090;-1.786;2023-07-24T03:10:41;99634.59;;;26.79;44.64
53246;BME280;39569;51.090;-1.786;2023-07-24T03:13:08;99629.34;;;26.69;45.37
53246;BME280;39569;51.090;-1.786;2023-07-24T03:15:35;99631.16;;;26.73;44.81
53246;BME280;39569;51.090;-1.786;2023-07-24T03:18:01;99628.72;;;26.72;45.47
53246;BME280;39569;51.090;-1.786;2023-07-24T03:20:28;99628.72;;;26.72;45.41
53246;BME280;39569;51.090;-1.786;2023-07-24T03:22:55;99630.22;;;26.64;45.58
53246;BME280;39569;51.090;-1.786;2023-07-24T03:25:21;99627.81;;;26.49;46.16
53246;BME280;39569;51.090;-1.786;2023-07-24T03:27:50;99626.88;;;26.67;45.19
53246;BME280;39569;51.090;-1.786;2023-07-24T03:30:16;99631.66;;;26.62;45.49
53246;BME280;39569;51.090;-1.786;2023-07-24T03:32:43;99638.25;;;26.74;44.79
53246;BME280;39569;51.090;-1.786;2023-07-24T03:35:10;99637.63;;;26.77;45.38
53246;BME280;39569;51.090;-1.786;2023-07-24T03:37:36;99627.09;;;26.44;45.93
53246;BME280;39569;51.090;-1.786;2023-07-24T03:40:04;99632.06;;;26.82;45.05
53246;BME280;39569;51.090;-1.786;2023-07-24T03:42:31;99631.31;;;26.90;45.31
53246;BME280;39569;51.090;-1.786;2023-07-24T03:44:59;99637.31;;;26.92;44.87
53246;BME280;39569;51.090;-1.786;2023-07-24T03:47:26;99635.72;;;26.78;44.92
53246;BME280;39569;51.090;-1.786;2023-07-24T03:49:53;99627.16;;;26.93;45.24
53246;BME280;39569;51.090;-1.786;2023-07-24T03:52:20;99635.69;;;26.91;44.86
53246;BME280;39569;51.090;-1.786;2023-07-24T03:54:47;99639.16;;;26.83;45.42
53246;BME280;39569;51.090;-1.786;2023-07-24T03:57:14;99638.06;;;26.84;45.18
53246;BME280;39569;51.090;-1.786;2023-07-24T03:59:40;99641.72;;;26.80;45.11
53246;BME280;39569;51.090;-1.786;2023-07-24T04:02:08;99644.00;;;26.86;45.06
53246;BME280;39569;51.090;-1.786;2023-07-24T04:04:35;99644.63;;;26.83;45.38
53246;BME280;39569;51.090;-1.786;2023-07-24T04:07:02;99646.16;;;26.76;45.26
53246;BME280;39569;51.090;-1.786;2023-07-24T04:09:29;99645.47;;;26.84;45.18
53246;BME280;39569;51.090;-1.786;2023-07-24T04:11:56;99643.53;;;26.84;44.95
53246;BME280;39569;51.090;-1.786;2023-07-24T04:14:23;99642.19;;;26.68;45.50
53246;BME280;39569;51.090;-1.786;2023-07-24T04:16:49;99641.81;;;26.75;45.57
53246;BME280;39569;51.090;-1.786;2023-07-24T04:19:17;99652.44;;;26.63;45.39
53246;BME280;39569;51.090;-1.786;2023-07-24T04:21:44;99646.25;;;26.57;45.44
53246;BME280;39569;51.090;-1.786;2023-07-24T04:24:11;99661.09;;;26.70;45.66
53246;BME280;39569;51.090;-1.786;2023-07-24T04:26:38;99657.84;;;26.81;45.69
53246;BME280;39569;51.090;-1.786;2023-07-24T04:29:05;99663.44;;;26.90;45.24
53246;BME280;39569;51.090;-1.786;2023-07-24T04:31:32;99660.38;;;26.91;45.65
53246;BME280;39569;51.090;-1.786;2023-07-24T04:33:59;99659.16;;;26.84;45.13
53246;BME280;39569;51.090;-1.786;2023-07-24T04:36:27;99662.69;;;26.57;46.28
53246;BME280;39569;51.090;-1.786;2023-07-24T04:38:53;99662.16;;;26.01;47.64
53246;BME280;39569;51.090;-1.786;2023-07-24T04:41:20;99662.00;;;26.52;46.15
53246;BME280;39569;51.090;-1.786;2023-07-24T04:43:47;99664.84;;;26.87;45.69
53246;BME280;39569;51.090;-1.786;2023-07-24T04:46:14;99654.50;;;26.71;46.25
53246;BME280;39569;51.090;-1.786;2023-07-24T04:48:40;99661.78;;;26.89;45.35
53246;BME280;39569;51.090;-1.786;2023-07-24T04:51:07;99667.16;;;26.67;45.62
53246;BME280;39569;51.090;-1.786;2023-07-24T04:53:35;99667.00;;;26.04;47.46
53246;BME280;39569;51.090;-1.786;2023-07-24T04:56:02;99668.41;;;26.47;46.47
53246;BME280;39569;51.090;-1.786;2023-07-24T04:58:29;99670.69;;;26.13;47.25
53246;BME280;39569;51.090;-1.786;2023-07-24T05:00:55;99665.97;;;26.73;45.51
53246;BME280;39569;51.090;-1.786;2023-07-24T05:03:22;99664.09;;;26.68;46.28
53246;BME280;39569;51.090;-1.786;2023-07-24T05:05:54;99668.19;;;26.30;46.29
53246;BME280;39569;51.090;-1.786;2023-07-24T05:08:21;99677.84;;;26.55;45.88
53246;BME280;39569;51.090;-1.786;2023-07-24T05:10:53;99669.31;;;26.83;45.56
53246;BME280;39569;51.090;-1.786;2023-07-24T05:13:20;99675.41;;;26.80;45.28
53246;BME280;39569;51.090;-1.786;2023-07-24T05:15:47;99672.75;;;26.62;45.96
53246;BME280;39569;51.090;-1.786;2023-07-24T05:18:14;99671.13;;;26.47;46.26
53246;BME280;39569;51.090;-1.786;2023-07-24T05:20:43;99674.59;;;26.80;45.63
53246;BME280;39569;51.090;-1.786;2023-07-24T05:23:10;99669.31;;;26.83;45.55
53246;BME280;39569;51.090;-1.786;2023-07-24T05:25:37;99673.56;;;26.76;45.84
53246;BME280;39569;51.090;-1.786;2023-07-24T05:28:05;99676.00;;;26.77;45.97
53246;BME280;39569;51.090;-1.786;2023-07-24T05:30:32;99677.22;;;26.58;46.43
53246;BME280;39569;51.090;-1.786;2023-07-24T05:32:59;99679.22;;;26.11;47.18
53246;BME280;39569;51.090;-1.786;2023-07-24T05:35:26;99671.22;;;26.56;46.51
53246;BME280;39569;51.090;-1.786;2023-07-24T05:37:52;99676.44;;;26.84;45.07
53246;BME280;39569;51.090;-1.786;2023-07-24T05:40:19;99685.31;;;27.03;45.12
53246;BME280;39569;51.090;-1.786;2023-07-24T05:42:46;99680.44;;;27.00;45.35
53246;BME280;39569;51.090;-1.786;2023-07-24T05:45:14;99679.13;;;26.98;45.16
53246;BME280;39569;51.090;-1.786;2023-07-24T05:47:41;99680.44;;;27.00;44.91
53246;BME280;39569;51.090;-1.786;2023-07-24T05:50:08;99677.56;;;27.19;44.75
53246;BME280;39569;51.090;-1.786;2023-07-24T05:52:35;99686.31;;;27.07;44.65
53246;BME280;39569;51.090;-1.786;2023-07-24T05:55:02;99675.81;;;26.87;44.92
53246;BME280;39569;51.090;-1.786;2023-07-24T05:57:29;99682.19;;;26.83;44.46
53246;BME280;39569;51.090;-1.786;2023-07-24T05:59:56;99679.44;;;26.96;43.82
53246;BME280;39569;51.090;-1.786;2023-07-24T06:02:24;99674.59;;;26.93;44.44
53246;BME280;39569;51.090;-1.786;2023-07-24T06:04:51;99678.97;;;27.16;43.82
53246;BME280;39569;51.090;-1.786;2023-07-24T06:07:17;99688.22;;;27.20;43.73
53246;BME280;39569;51.090;-1.786;2023-07-24T06:09:44;99680.56;;;26.68;43.67
53246;BME280;39569;51.090;-1.786;2023-07-24T06:12:11;99686.06;;;26.55;44.37
53246;BME280;39569;51.090;-1.786;2023-07-24T06:14:38;99680.75;;;26.99;43.43
53246;BME280;39569;51.090;-1.786;2023-07-24T06:17:04;99682.00;;;27.29;43.20
53246;BME280;39569;51.090;-1.786;2023-07-24T06:19:32;99684.91;;;27.46;42.62
53246;BME280;39569;51.090;-1.786;2023-07-24T06:21:59;99686.09;;;27.53;42.96
53246;BME280;39569;51.090;-1.786;2023-07-24T06:24:26;99685.50;;;27.56;43.30
53246;BME280;39569;51.090;-1.786;2023-07-24T06:26:53;99683.44;;;27.40;43.81
53246;BME280;39569;51.090;-1.786;2023-07-24T06:29:19;99687.94;;;27.08;43.51
53246;BME280;39569;51.090;-1.786;2023-07-24T06:31:47;99686.81;;;27.23;43.35
53246;BME280;39569;51.090;-1.786;2023-07-24T06:34:15;99690.56;;;27.49;43.66
53246;BME280;39569;51.090;-1.786;2023-07-24T06:36:43;99689.78;;;27.71;43.09
53246;BME280;39569;51.090;-1.786;2023-07-24T06:39:10;99700.13;;;27.74;42.26
53246;BME280;39569;51.090;-1.786;2023-07-24T06:41:36;99695.88;;;27.68;42.79
53246;BME280;39569;51.090;-1.786;2023-07-24T06:44:03;99705.81;;;27.77;43.17
53246;BME280;39569;51.090;-1.786;2023-07-24T06:46:30;99691.16;;;28.04;41.69
53246;BME280;39569;51.090;-1.786;2023-07-24T06:48:57;99698.03;;;27.71;42.40
53246;BME280;39569;51.090;-1.786;2023-07-24T06:51:23;99701.00;;;28.05;41.99
53246;BME280;39569;51.090;-1.786;2023-07-24T06:53:51;99712.75;;;27.53;42.60
53246;BME280;39569;51.090;-1.786;2023-07-24T06:56:18;99705.66;;;27.38;42.58
53246;BME280;39569;51.090;-1.786;2023-07-24T06:58:45;99712.47;;;27.85;42.80
53246;BME280;39569;51.090;-1.786;2023-07-24T07:01:12;99710.44;;;27.90;42.38
53246;BME280;39569;51.090;-1.786;2023-07-24T07:03:38;99702.66;;;28.06;41.99
53246;BME280;39569;51.090;-1.786;2023-07-24T07:06:05;99709.75;;;27.63;42.90
53246;BME280;39569;51.090;-1.786;2023-07-24T07:08:32;99707.97;;;28.33;42.04
53246;BME280;39569;51.090;-1.786;2023-07-24T07:11:00;99698.88;;;28.24;42.01
53246;BME280;39569;51.090;-1.786;2023-07-24T07:13:28;99705.34;;;28.28;41.95
53246;BME280;39569;51.090;-1.786;2023-07-24T07:15:55;99704.09;;;28.73;41.34
53246;BME280;39569;51.090;-1.786;2023-07-24T07:18:21;99709.66;;;28.82;41.62
53246;BME280;39569;51.090;-1.786;2023-07-24T07:20:49;99712.06;;;27.69;42.07
53246;BME280;39569;51.090;-1.786;2023-07-24T07:23:17;99706.00;;;28.64;41.35
53246;BME280;39569;51.090;-1.786;2023-07-24T07:25:44;99707.88;;;28.94;39.86
53246;BME280;39569;51.090;-1.786;2023-07-24T07:28:12;99703.44;;;29.24;39.71
53246;BME280;39569;51.090;-1.786;2023-07-24T07:30:39;99703.44;;;29.24;39.82
53246;BME280;39569;51.090;-1.786;2023-07-24T07:33:06;99704.19;;;29.07;39.83
53246;BME280;39569;51.090;-1.786;2023-07-24T07:35:33;99708.41;;;28.57;40.62
53246;BME280;39569;51.090;-1.786;2023-07-24T07:38:00;99707.34;;;29.23;40.96
53246;BME280;39569;51.090;-1.786;2023-07-24T07:40:27;99711.13;;;28.49;40.82
53246;BME280;39569;51.090;-1.786;2023-07-24T07:42:54;99704.63;;;28.84;40.63
53246;BME280;39569;51.090;-1.786;2023-07-24T07:45:23;99715.44;;;28.41;41.82
53246;BME280;39569;51.090;-1.786;2023-07-24T07:47:50;99714.81;;;28.83;40.25
53246;BME280;39569;51.090;-1.786;2023-07-24T07:50:18;99712.25;;;28.95;39.84
53246;BME280;39569;51.090;-1.786;2023-07-24T07:52:45;99713.00;;;29.44;38.12
53246;BME280;39569;51.090;-1.786;2023-07-24T07:55:12;99711.38;;;29.26;39.28
53246;BME280;39569;51.090;-1.786;2023-07-24T07:57:39;99722.94;;;27.96;40.66
53246;BME280;39569;51.090;-1.786;2023-07-24T08:00:06;99723.50;;;27.49;41.64
53246;BME280;39569;51.090;-1.786;2023-07-24T08:02:35;99727.03;;;28.38;40.31
53246;BME280;39569;51.090;-1.786;2023-07-24T08:05:06;99721.41;;;28.65;40.45
53246;BME280;39569;51.090;-1.786;2023-07-24T08:07:33;99727.63;;;28.88;39.13
53246;BME280;39569;51.090;-1.786;2023-07-24T08:09:59;99725.16;;;28.86;39.50
53246;BME280;39569;51.090;-1.786;2023-07-24T08:12:26;99732.38;;;28.65;40.03
53246;BME280;39569;51.090;-1.786;2023-07-24T08:14:53;99727.56;;;28.79;39.07
53246;BME280;39569;51.090;-1.786;2023-07-24T08:17:20;99730.22;;;28.93;38.97
53246;BME280;39569;51.090;-1.786;2023-07-24T08:19:48;99720.91;;;29.20;37.65
53246;BME280;39569;51.090;-1.786;2023-07-24T08:22:15;99719.63;;;29.17;38.53
53246;BME280;39569;51.090;-1.786;2023-07-24T08:24:41;99725.47;;;29.41;38.35
53246;BME280;39569;51.090;-1.786;2023-07-24T08:27:10;99727.41;;;29.49;37.83
53246;BME280;39569;51.090;-1.786;2023-07-24T08:29:36;99722.56;;;29.46;38.48
53246;BME280;39569;51.090;-1.786;2023-07-24T08:32:04;99725.31;;;29.63;38.15
53246;BME280;39569;51.090;-1.786;2023-07-24T08:34:31;99733.56;;;29.38;38.61
53246;BME280;39569;51.090;-1.786;2023-07-24T08:36:59;99744.81;;;28.63;40.44
53246;BME280;39569;51.090;-1.786;2023-07-24T08:39:26;99739.81;;;29.13;39.86
53246;BME280;39569;51.090;-1.786;2023-07-24T08:41:52;99743.50;;;28.60;40.32
53246;BME280;39569;51.090;-1.786;2023-07-24T08:44:20;99735.38;;;28.94;39.79
53246;BME280;39569;51.090;-1.786;2023-07-24T08:46:49;99734.34;;;29.30;39.59
53246;BME280;39569;51.090;-1.786;2023-07-24T08:49:18;99743.09;;;29.23;39.76
53246;BME280;39569;51.090;-1.786;2023-07-24T08:51:45;99742.00;;;28.85;40.32
53246;BME280;39569;51.090;-1.786;2023-07-24T08:54:15;99746.16;;;29.13;39.52
53246;BME280;39569;51.090;-1.786;2023-07-24T08:56:42;99736.16;;;29.34;39.15
53246;BME280;39569;51.090;-1.786;2023-07-24T08:59:12;99748.75;;;28.79;40.67
53246;BME280;39569;51.090;-1.786;2023-07-24T09:01:40;99741.50;;;28.83;39.94
53246;BME280;39569;51.090;-1.786;2023-07-24T09:04:07;99745.78;;;29.06;39.96
53246;BME280;39569;51.090;-1.786;2023-07-24T09:06:33;99745.56;;;28.94;40.75
53246;BME280;39569;51.090;-1.786;2023-07-24T09:09:00;99752.47;;;28.74;41.31
53246;BME280;39569;51.090;-1.786;2023-07-24T09:11:29;99758.72;;;29.05;40.79
53246;BME280;39569;51.090;-1.786;2023-07-24T09:13:56;99766.47;;;29.03;40.96
53246;BME280;39569;51.090;-1.786;2023-07-24T09:16:24;99773.28;;;28.14;43.09
53246;BME280;39569;51.090;-1.786;2023-07-24T09:18:52;99774.47;;;28.22;42.24
53246;BME280;39569;51.090;-1.786;2023-07-24T09:21:27;99779.34;;;28.02;42.85
53246;BME280;39569;51.090;-1.786;2023-07-24T09:23:54;99781.91;;;28.52;41.05
53246;BME280;39569;51.090;-1.786;2023-07-24T09:26:22;99784.75;;;28.16;41.29
53246;BME280;39569;51.090;-1.786;2023-07-24T09:28:53;99794.16;;;28.46;40.95
53246;BME280;39569;51.090;-1.786;2023-07-24T09:31:20;99792.84;;;27.77;42.28
53246;BME280;39569;51.090;-1.786;2023-07-24T09:33:47;99799.84;;;28.49;40.57
53246;BME280;39569;51.090;-1.786;2023-07-24T09:36:14;99815.97;;;28.64;40.29
53246;BME280;39569;51.090;-1.786;2023-07-24T09:38:41;99803.75;;;28.79;40.42
53246;BME280;39569;51.090;-1.786;2023-07-24T09:41:07;99823.13;;;28.74;39.86
53246;BME280;39569;51.090;-1.786;2023-07-24T09:43:34;99823.63;;;27.87;41.23
53246;BME280;39569;51.090;-1.786;2023-07-24T09:46:04;99812.88;;;28.13;40.92
53246;BME280;39569;51.090;-1.786;2023-07-24T09:48:32;99819.41;;;28.26;40.20
53246;BME280;39569;51.090;-1.786;2023-07-24T09:51:00;99824.50;;;28.10;40.31
53246;BME280;39569;51.090;-1.786;2023-07-24T09:53:33;99823.97;;;28.08;40.55
53246;BME280;39569;51.090;-1.786;2023-07-24T09:56:02;99823.03;;;28.12;40.38
53246;BME280;39569;51.090;-1.786;2023-07-24T09:58:32;99828.28;;;27.87;41.11
53246;BME280;39569;51.090;-1.786;2023-07-24T10:01:00;99828.50;;;27.41;42.33
53246;BME280;39569;51.090;-1.786;2023-07-24T10:03:28;99828.59;;;27.99;41.12
53246;BME280;39569;51.090;-1.786;2023-07-24T10:05:55;99834.63;;;27.74;41.85
53246;BME280;39569;51.090;-1.786;2023-07-24T10:08:22;99841.34;;;27.68;41.21
53246;BME280;39569;51.090;-1.786;2023-07-24T10:10:50;99851.34;;;27.64;41.25
53246;BME280;39569;51.090;-1.786;2023-07-24T10:13:19;99848.53;;;27.91;40.72
53246;BME280;39569;51.090;-1.786;2023-07-24T10:15:47;99853.75;;;28.14;40.23
53246;BME280;39569;51.090;-1.786;2023-07-24T10:18:16;99853.13;;;27.95;40.93
53246;BME280;39569;51.090;-1.786;2023-07-24T10:20:44;99855.06;;;27.95;40.25
53246;BME280;39569;51.090;-1.786;2023-07-24T10:23:17;99859.00;;;28.25;39.87
53246;BME280;39569;51.090;-1.786;2023-07-24T10:25:45;99856.13;;;28.07;39.90
53246;BME280;39569;51.090;-1.786;2023-07-24T10:28:12;99861.13;;;28.05;40.30
53246;BME280;39569;51.090;-1.786;2023-07-24T10:30:42;99854.94;;;27.86;40.19
53246;BME280;39569;51.090;-1.786;2023-07-24T10:33:10;99862.97;;;27.96;40.88
53246;BME280;39569;51.090;-1.786;2023-07-24T10:35:41;99880.91;;;26.99;41.54
53246;BME280;39569;51.090;-1.786;2023-07-24T10:38:10;99887.09;;;27.04;41.19
53246;BME280;39569;51.090;-1.786;2023-07-24T10:40:39;99881.00;;;27.21;40.29
53246;BME280;39569;51.090;-1.786;2023-07-24T10:43:06;99884.44;;;27.81;39.86
53246;BME280;39569;51.090;-1.786;2023-07-24T10:45:46;99884.78;;;27.66;40.69
53246;BME280;39569;51.090;-1.786;2023-07-24T10:48:14;99891.63;;;27.90;39.80
53246;BME280;39569;51.090;-1.786;2023-07-24T10:50:42;99888.03;;;28.39;38.55
53246;BME280;39569;51.090;-1.786;2023-07-24T10:53:12;99894.69;;;28.60;38.42
53246;BME280;39569;51.090;-1.786;2023-07-24T10:55:41;99895.00;;;28.01;38.88
53246;BME280;39569;51.090;-1.786;2023-07-24T10:58:08;99891.81;;;28.07;39.73
53246;BME280;39569;51.090;-1.786;2023-07-24T11:00:35;99906.91;;;27.96;39.27
53246;BME280;39569;51.090;-1.786;2023-07-24T11:03:02;99911.75;;;28.13;39.42
53246;BME280;39569;51.090;-1.786;2023-07-24T11:05:29;99913.22;;;27.97;39.95
53246;BME280;39569;51.090;-1.786;2023-07-24T11:07:56;99915.47;;;27.54;40.54
53246;BME280;39569;51.090;-1.786;2023-07-24T11:10:24;99912.97;;;28.07;39.04
53246;BME280;39569;51.090;-1.786;2023-07-24T11:12:52;99919.69;;;28.37;38.57
53246;BME280;39569;51.090;-1.786;2023-07-24T11:15:24;99928.97;;;28.27;37.93
53246;BME280;39569;51.090;-1.786;2023-07-24T11:17:52;99925.66;;;28.52;37.50
53246;BME280;39569;51.090;-1.786;2023-07-24T11:20:19;99926.75;;;28.29;37.92
53246;BME280;39569;51.090;-1.786;2023-07-24T11:22:46;99930.13;;;28.62;37.08
53246;BME280;39569;51.090;-1.786;2023-07-24T11:25:13;99927.66;;;28.60;37.50
53246;BME280;39569;51.090;-1.786;2023-07-24T11:27:42;99941.72;;;28.81;37.04
53246;BME280;39569;51.090;-1.786;2023-07-24T11:30:10;99936.72;;;28.25;37.48
53246;BME280;39569;51.090;-1.786;2023-07-24T11:32:38;99939.13;;;28.40;37.90
53246;BME280;39569;51.090;-1.786;2023-07-24T11:35:06;99946.63;;;28.48;38.37
53246;BME280;39569;51.090;-1.786;2023-07-24T11:37:34;99942.13;;;28.30;37.66
53246;BME280;39569;51.090;-1.786;2023-07-24T11:40:03;99953.34;;;28.42;37.51
53246;BME280;39569;51.090;-1.786;2023-07-24T11:42:30;99957.91;;;28.25;38.16
53246;BME280;39569;51.090;-1.786;2023-07-24T11:45:00;99946.31;;;28.50;37.64
53246;BME280;39569;51.090;-1.786;2023-07-24T11:47:27;99945.47;;;28.27;38.01
53246;BME280;39569;51.090;-1.786;2023-07-24T11:49:58;99953.19;;;28.25;37.86
53246;BME280;39569;51.090;-1.786;2023-07-24T11:52:26;99955.59;;;27.91;38.42
53246;BME280;39569;51.090;-1.786;2023-07-24T11:54:56;99962.31;;;27.85;38.38
53246;BME280;39569;51.090;-1.786;2023-07-24T11:57:27;99952.03;;;28.53;37.68
53246;BME280;39569;51.090;-1.786;2023-07-24T11:59:53;99960.38;;;28.48;36.78
53246;BME280;39569;51.090;-1.786;2023-07-24T12:02:25;99952.22;;;28.57;36.51
53246;BME280;39569;51.090;-1.786;2023-07-24T12:04:56;99952.97;;;28.71;36.53
53246;BME280;39569;51.090;-1.786;2023-07-24T12:07:29;99958.41;;;29.06;35.82
53246;BME280;39569;51.090;-1.786;2023-07-24T12:09:56;99958.06;;;29.08;35.49
53246;BME280;39569;51.090;-1.786;2023-07-24T12:12:23;99957.22;;;28.99;35.61
53246;BME280;39569;51.090;-1.786;2023-07-24T12:14:50;99963.16;;;28.92;36.99
53246;BME280;39569;51.090;-1.786;2023-07-24T12:17:18;99962.25;;;29.28;36.51
53246;BME280;39569;51.090;-1.786;2023-07-24T12:19:46;99966.16;;;29.35;36.46
53246;BME280;39569;51.090;-1.786;2023-07-24T12:22:14;99960.03;;;28.63;37.36
53246;BME280;39569;51.090;-1.786;2023-07-24T12:24:41;99958.13;;;28.64;37.43
53246;BME280;39569;51.090;-1.786;2023-07-24T12:27:07;99963.34;;;28.74;36.76
53246;BME280;39569;51.090;-1.786;2023-07-24T12:29:34;99963.34;;;28.74;37.07
53246;BME280;39569;51.090;-1.786;2023-07-24T12:32:01;99970.50;;;29.05;37.10
53246;BME280;39569;51.090;-1.786;2023-07-24T12:34:27;99970.41;;;28.88;36.49
53246;BME280;39569;51.090;-1.786;2023-07-24T12:36:56;99968.22;;;28.99;36.01
53246;BME280;39569;51.090;-1.786;2023-07-24T12:39:22;99965.47;;;29.21;36.35
53246;BME280;39569;51.090;-1.786;2023-07-24T12:41:49;99972.75;;;29.56;36.02
53246;BME280;39569;51.090;-1.786;2023-07-24T12:44:16;99968.78;;;28.65;37.05
53246;BME280;39569;51.090;-1.786;2023-07-24T12:46:43;99967.28;;;28.81;36.94
53246;BME280;39569;51.090;-1.786;2023-07-24T12:49:09;99967.03;;;28.69;36.51
53246;BME280;39569;51.090;-1.786;2023-07-24T12:51:36;99972.91;;;28.76;36.96